sensor_id;sensor_type;location;lat;lon;timestamp;P1;durP1;ratioP1;P2;durP2;ratioP2
62673;SDS011;62269;47.594;17.638;2023-08-20T00:00:03;13.60;;;12.23;;
62673;SDS011;62269;47.594;17.638;2023-08-20T00:01:01;14.02;;;12.73;;
62673;SDS011;62269;47.594;17.638;2023-08-20T00:02:01;13.40;;;12.10;;
62673;SDS011;62269;47.594;17.638;2023-08-20T00:03:01;14.35;;;12.88;;
62673;SDS011;62269;47.594;17.638;2023-08-20T00:04:00;13.48;;;12.27;;
62673;SDS011;62269;47.594;17.638;2023-08-20T00:04:59;18.05;;;12.63;;
62673;SDS011;62269;47.594;17.638;2023-08-20T00:05:57;14.90;;;13.15;;
62673;SDS011;62269;47.594;17.638;2023-08-20T00:06:55;14.63;;;12.93;;
62673;SDS011;62269;47.594;17.638;2023-08-20T00:07:52;15.48;;;12.98;;
62673;SDS011;62269;47.594;17.638;2023-08-20T00:08:49;15.30;;;13.38;;
62673;SDS011;62269;47.594;17.638;2023-08-20T00:09:46;13.45;;;12.10;;
62673;SDS011;62269;47.594;17.638;2023-08-20T00:10:43;13.95;;;12.65;;
62673;SDS011;62269;47.594;17.638;2023-08-20T00:11:40;14.32;;;13.00;;
62673;SDS011;62269;47.594;17.638;2023-08-20T00:12:37;14.20;;;12.85;;
62673;SDS011;62269;47.594;17.638;2023-08-20T00:13:34;14.20;;;12.77;;
62673;SDS011;62269;47.594;17.638;2023-08-20T00:15:51;14.05;;;12.75;;
62673;SDS011;62269;47.594;17.638;2023-08-20T00:16:48;13.93;;;12.00;;
62673;SDS011;62269;47.594;17.638;2023-08-20T00:17:46;13.98;;;12.52;;
62673;SDS011;62269;47.594;17.638;2023-08-20T00:18:43;12.80;;;11.55;;
62673;SDS011;62269;47.594;17.638;2023-08-20T00:19:41;14.25;;;12.85;;
62673;SDS011;62269;47.594;17.638;2023-08-20T00:20:38;14.00;;;12.68;;
62673;SDS011;62269;47.594;17.638;2023-08-20T00:21:39;17.15;;;12.80;;
62673;SDS011;62269;47.594;17.638;2023-08-20T00:22:41;15.00;;;13.60;;
62673;SDS011;62269;47.594;17.638;2023-08-20T00:23:41;14.10;;;12.80;;
62673;SDS011;62269;47.594;17.638;2023-08-20T00:24:39;14.55;;;12.80;;
62673;SDS011;62269;47.594;17.638;2023-08-20T00:25:36;13.73;;;12.32;;
62673;SDS011;62269;47.594;17.638;2023-08-20T00:26:33;15.45;;;13.85;;
62673;SDS011;62269;47.594;17.638;2023-08-20T00:27:31;14.55;;;13.13;;
62673;SDS011;62269;47.594;17.638;2023-08-20T00:28:29;15.27;;;12.55;;
62673;SDS011;62269;47.594;17.638;2023-08-20T00:29:26;14.73;;;13.32;;
62673;SDS011;62269;47.594;17.638;2023-08-20T00:30:23;19.08;;;14.30;;
62673;SDS011;62269;47.594;17.638;2023-08-20T00:31:20;14.30;;;12.90;;
62673;SDS011;62269;47.594;17.638;2023-08-20T00:32:17;15.13;;;13.52;;
62673;SDS011;62269;47.594;17.638;2023-08-20T00:33:15;14.10;;;12.70;;
62673;SDS011;62269;47.594;17.638;2023-08-20T00:34:12;13.90;;;12.60;;
62673;SDS011;62269;47.594;17.638;2023-08-20T00:35:09;14.68;;;13.18;;
62673;SDS011;62269;47.594;17.638;2023-08-20T00:36:06;14.48;;;13.18;;
62673;SDS011;62269;47.594;17.638;2023-08-20T00:37:03;14.35;;;12.95;;
62673;SDS011;62269;47.594;17.638;2023-08-20T00:38:00;16.27;;;13.90;;
62673;SDS011;62269;47.594;17.638;2023-08-20T00:38:57;14.77;;;13.27;;
62673;SDS011;62269;47.594;17.638;2023-08-20T00:39:54;14.45;;;13.05;;
62673;SDS011;62269;47.594;17.638;2023-08-20T00:40:51;14.52;;;12.55;;
62673;SDS011;62269;47.594;17.638;2023-08-20T00:41:48;13.80;;;12.50;;
62673;SDS011;62269;47.594;17.638;2023-08-20T00:42:45;13.82;;;12.27;;
62673;SDS011;62269;47.594;17.638;2023-08-20T00:43:42;14.18;;;12.82;;
62673;SDS011;62269;47.594;17.638;2023-08-20T00:44:40;14.18;;;12.82;;
62673;SDS011;62269;47.594;17.638;2023-08-20T00:45:43;13.93;;;12.55;;
62673;SDS011;62269;47.594;17.638;2023-08-20T00:46:40;14.35;;;12.80;;
62673;SDS011;62269;47.594;17.638;2023-08-20T00:47:37;14.13;;;12.73;;
62673;SDS011;62269;47.594;17.638;2023-08-20T00:48:35;14.95;;;13.40;;
62673;SDS011;62269;47.594;17.638;2023-08-20T00:49:32;14.23;;;12.88;;
62673;SDS011;62269;47.594;17.638;2023-08-20T00:50:29;15.02;;;13.62;;
62673;SDS011;62269;47.594;17.638;2023-08-20T00:51:26;14.23;;;12.80;;
62673;SDS011;62269;47.594;17.638;2023-08-20T00:52:24;14.60;;;13.10;;
62673;SDS011;62269;47.594;17.638;2023-08-20T00:53:21;14.98;;;13.43;;
62673;SDS011;62269;47.594;17.638;2023-08-20T00:54:19;14.80;;;13.38;;
62673;SDS011;62269;47.594;17.638;2023-08-20T00:55:17;14.40;;;12.90;;
62673;SDS011;62269;47.594;17.638;2023-08-20T00:56:14;16.52;;;14.05;;
62673;SDS011;62269;47.594;17.638;2023-08-20T00:57:13;14.27;;;12.80;;
62673;SDS011;62269;47.594;17.638;2023-08-20T00:58:11;14.98;;;13.40;;
62673;SDS011;62269;47.594;17.638;2023-08-20T00:59:09;17.00;;;13.52;;
62673;SDS011;62269;47.594;17.638;2023-08-20T01:00:06;14.05;;;12.65;;
62673;SDS011;62269;47.594;17.638;2023-08-20T01:01:08;14.50;;;13.00;;
62673;SDS011;62269;47.594;17.638;2023-08-20T01:02:05;15.15;;;13.30;;
62673;SDS011;62269;47.594;17.638;2023-08-20T01:03:02;14.63;;;13.13;;
62673;SDS011;62269;47.594;17.638;2023-08-20T01:04:00;15.10;;;13.70;;
62673;SDS011;62269;47.594;17.638;2023-08-20T01:04:57;14.40;;;12.95;;
62673;SDS011;62269;47.594;17.638;2023-08-20T01:05:58;16.42;;;13.65;;
62673;SDS011;62269;47.594;17.638;2023-08-20T01:09:40;14.25;;;12.85;;
62673;SDS011;62269;47.594;17.638;2023-08-20T01:10:34;15.68;;;13.98;;
62673;SDS011;62269;47.594;17.638;2023-08-20T01:11:37;15.15;;;13.65;;
62673;SDS011;62269;47.594;17.638;2023-08-20T01:12:41;15.40;;;13.70;;
62673;SDS011;62269;47.594;17.638;2023-08-20T01:13:40;15.05;;;13.65;;
62673;SDS011;62269;47.594;17.638;2023-08-20T01:14:37;14.70;;;13.15;;
62673;SDS011;62269;47.594;17.638;2023-08-20T01:15:34;14.70;;;12.85;;
62673;SDS011;62269;47.594;17.638;2023-08-20T01:16:31;15.30;;;13.30;;
62673;SDS011;62269;47.594;17.638;2023-08-20T01:17:28;14.52;;;12.85;;
62673;SDS011;62269;47.594;17.638;2023-08-20T01:18:26;14.65;;;13.23;;
62673;SDS011;62269;47.594;17.638;2023-08-20T01:19:23;15.38;;;13.85;;
62673;SDS011;62269;47.594;17.638;2023-08-20T01:20:20;14.65;;;13.07;;
62673;SDS011;62269;47.594;17.638;2023-08-20T01:21:36;15.50;;;13.00;;
62673;SDS011;62269;47.594;17.638;2023-08-20T01:22:49;14.95;;;13.43;;
62673;SDS011;62269;47.594;17.638;2023-08-20T01:25:08;15.65;;;14.05;;
62673;SDS011;62269;47.594;17.638;2023-08-20T01:28:55;14.85;;;13.35;;
62673;SDS011;62269;47.594;17.638;2023-08-20T01:29:53;15.85;;;13.77;;
62673;SDS011;62269;47.594;17.638;2023-08-20T01:30:51;15.90;;;14.15;;
62673;SDS011;62269;47.594;17.638;2023-08-20T01:31:50;16.02;;;14.35;;
62673;SDS011;62269;47.594;17.638;2023-08-20T01:32:49;15.75;;;13.60;;
62673;SDS011;62269;47.594;17.638;2023-08-20T01:33:47;15.38;;;13.88;;
62673;SDS011;62269;47.594;17.638;2023-08-20T01:34:44;15.13;;;13.62;;
62673;SDS011;62269;47.594;17.638;2023-08-20T01:35:42;15.80;;;14.02;;
62673;SDS011;62269;47.594;17.638;2023-08-20T01:36:39;16.87;;;14.40;;
62673;SDS011;62269;47.594;17.638;2023-08-20T01:37:36;17.05;;;14.85;;
62673;SDS011;62269;47.594;17.638;2023-08-20T01:38:33;17.98;;;14.40;;
62673;SDS011;62269;47.594;17.638;2023-08-20T01:39:30;16.48;;;14.82;;
62673;SDS011;62269;47.594;17.638;2023-08-20T01:40:27;15.38;;;13.90;;
62673;SDS011;62269;47.594;17.638;2023-08-20T01:41:24;16.65;;;13.80;;
62673;SDS011;62269;47.594;17.638;2023-08-20T01:42:21;15.85;;;14.30;;
62673;SDS011;62269;47.594;17.638;2023-08-20T01:43:18;15.98;;;14.35;;
62673;SDS011;62269;47.594;17.638;2023-08-20T01:44:15;15.85;;;14.25;;
62673;SDS011;62269;47.594;17.638;2023-08-20T01:45:12;16.42;;;13.27;;
62673;SDS011;62269;47.594;17.638;2023-08-20T01:46:09;17.10;;;14.73;;
62673;SDS011;62269;47.594;17.638;2023-08-20T01:47:06;15.80;;;14.23;;
62673;SDS011;62269;47.594;17.638;2023-08-20T01:48:03;15.95;;;14.23;;
62673;SDS011;62269;47.594;17.638;2023-08-20T01:49:00;16.90;;;14.32;;
62673;SDS011;62269;47.594;17.638;2023-08-20T01:49:58;15.30;;;13.88;;
62673;SDS011;62269;47.594;17.638;2023-08-20T01:50:55;15.15;;;13.65;;
62673;SDS011;62269;47.594;17.638;2023-08-20T01:51:52;16.08;;;14.57;;
62673;SDS011;62269;47.594;17.638;2023-08-20T01:52:49;15.00;;;13.50;;
62673;SDS011;62269;47.594;17.638;2023-08-20T01:53:46;15.50;;;13.85;;
62673;SDS011;62269;47.594;17.638;2023-08-20T01:54:43;17.02;;;14.48;;
62673;SDS011;62269;47.594;17.638;2023-08-20T01:55:40;15.55;;;13.95;;
62673;SDS011;62269;47.594;17.638;2023-08-20T01:56:37;15.75;;;13.98;;
62673;SDS011;62269;47.594;17.638;2023-08-20T01:57:34;14.87;;;13.30;;
62673;SDS011;62269;47.594;17.638;2023-08-20T01:58:32;14.80;;;13.25;;
62673;SDS011;62269;47.594;17.638;2023-08-20T01:59:29;15.07;;;13.27;;
62673;SDS011;62269;47.594;17.638;2023-08-20T02:00:26;16.02;;;14.40;;
62673;SDS011;62269;47.594;17.638;2023-08-20T02:01:25;15.30;;;13.77;;
62673;SDS011;62269;47.594;17.638;2023-08-20T02:02:22;14.80;;;13.30;;
62673;SDS011;62269;47.594;17.638;2023-08-20T02:03:19;15.10;;;13.70;;
62673;SDS011;62269;47.594;17.638;2023-08-20T02:04:16;16.35;;;13.75;;
62673;SDS011;62269;47.594;17.638;2023-08-20T02:05:13;14.63;;;13.23;;
62673;SDS011;62269;47.594;17.638;2023-08-20T02:06:10;22.00;;;14.05;;
62673;SDS011;62269;47.594;17.638;2023-08-20T02:07:07;14.65;;;13.20;;
62673;SDS011;62269;47.594;17.638;2023-08-20T02:08:04;18.62;;;14.20;;
62673;SDS011;62269;47.594;17.638;2023-08-20T02:09:02;15.50;;;14.05;;
62673;SDS011;62269;47.594;17.638;2023-08-20T02:10:00;16.10;;;14.40;;
62673;SDS011;62269;47.594;17.638;2023-08-20T02:11:03;16.27;;;13.98;;
62673;SDS011;62269;47.594;17.638;2023-08-20T02:12:01;16.92;;;15.23;;
62673;SDS011;62269;47.594;17.638;2023-08-20T02:12:58;17.45;;;15.65;;
62673;SDS011;62269;47.594;17.638;2023-08-20T02:13:55;16.58;;;14.65;;
62673;SDS011;62269;47.594;17.638;2023-08-20T02:14:52;16.05;;;14.45;;
62673;SDS011;62269;47.594;17.638;2023-08-20T02:15:56;15.35;;;13.85;;
62673;SDS011;62269;47.594;17.638;2023-08-20T02:16:57;15.52;;;13.90;;
62673;SDS011;62269;47.594;17.638;2023-08-20T02:17:56;16.02;;;14.25;;
62673;SDS011;62269;47.594;17.638;2023-08-20T02:18:53;20.35;;;15.25;;
62673;SDS011;62269;47.594;17.638;2023-08-20T02:19:50;16.10;;;14.60;;
62673;SDS011;62269;47.594;17.638;2023-08-20T02:20:47;18.23;;;14.68;;
62673;SDS011;62269;47.594;17.638;2023-08-20T02:21:44;15.88;;;14.35;;
62673;SDS011;62269;47.594;17.638;2023-08-20T02:22:42;21.05;;;15.23;;
62673;SDS011;62269;47.594;17.638;2023-08-20T02:23:39;16.23;;;14.57;;
62673;SDS011;62269;47.594;17.638;2023-08-20T02:24:36;16.75;;;14.90;;
62673;SDS011;62269;47.594;17.638;2023-08-20T02:25:34;15.63;;;14.05;;
62673;SDS011;62269;47.594;17.638;2023-08-20T02:26:31;15.18;;;13.77;;
62673;SDS011;62269;47.594;17.638;2023-08-20T02:27:28;16.15;;;14.52;;
62673;SDS011;62269;47.594;17.638;2023-08-20T02:28:25;15.45;;;13.73;;
62673;SDS011;62269;47.594;17.638;2023-08-20T02:29:22;15.40;;;13.98;;
62673;SDS011;62269;47.594;17.638;2023-08-20T02:30:19;15.65;;;14.15;;
62673;SDS011;62269;47.594;17.638;2023-08-20T02:31:16;16.08;;;14.38;;
62673;SDS011;62269;47.594;17.638;2023-08-20T02:32:13;16.95;;;14.50;;
62673;SDS011;62269;47.594;17.638;2023-08-20T02:33:11;16.37;;;14.20;;
62673;SDS011;62269;47.594;17.638;2023-08-20T02:34:08;16.48;;;14.87;;
62673;SDS011;62269;47.594;17.638;2023-08-20T02:35:05;17.20;;;15.48;;
62673;SDS011;62269;47.594;17.638;2023-08-20T02:36:02;16.33;;;14.73;;
62673;SDS011;62269;47.594;17.638;2023-08-20T02:37:00;16.65;;;15.00;;
62673;SDS011;62269;47.594;17.638;2023-08-20T02:37:57;17.67;;;15.35;;
62673;SDS011;62269;47.594;17.638;2023-08-20T02:38:54;16.75;;;15.15;;
62673;SDS011;62269;47.594;17.638;2023-08-20T02:39:51;16.80;;;14.55;;
62673;SDS011;62269;47.594;17.638;2023-08-20T02:40:49;16.48;;;14.63;;
62673;SDS011;62269;47.594;17.638;2023-08-20T02:41:46;14.90;;;13.60;;
62673;SDS011;62269;47.594;17.638;2023-08-20T02:42:43;15.30;;;13.57;;
62673;SDS011;62269;47.594;17.638;2023-08-20T02:43:40;16.55;;;14.87;;
62673;SDS011;62269;47.594;17.638;2023-08-20T02:44:37;16.60;;;14.95;;
62673;SDS011;62269;47.594;17.638;2023-08-20T02:45:39;16.85;;;15.25;;
62673;SDS011;62269;47.594;17.638;2023-08-20T02:46:37;16.60;;;14.87;;
62673;SDS011;62269;47.594;17.638;2023-08-20T02:47:34;15.45;;;13.95;;
62673;SDS011;62269;47.594;17.638;2023-08-20T02:48:32;17.42;;;15.70;;
62673;SDS011;62269;47.594;17.638;2023-08-20T02:49:29;17.90;;;14.13;;
62673;SDS011;62269;47.594;17.638;2023-08-20T02:50:26;16.62;;;14.95;;
62673;SDS011;62269;47.594;17.638;2023-08-20T02:51:23;16.45;;;14.85;;
62673;SDS011;62269;47.594;17.638;2023-08-20T02:52:20;17.15;;;14.98;;
62673;SDS011;62269;47.594;17.638;2023-08-20T02:53:17;15.50;;;13.90;;
62673;SDS011;62269;47.594;17.638;2023-08-20T02:54:14;16.17;;;14.25;;
62673;SDS011;62269;47.594;17.638;2023-08-20T02:55:11;16.42;;;14.82;;
62673;SDS011;62269;47.594;17.638;2023-08-20T02:56:08;16.58;;;14.52;;
62673;SDS011;62269;47.594;17.638;2023-08-20T02:57:05;16.48;;;14.87;;
62673;SDS011;62269;47.594;17.638;2023-08-20T02:58:02;16.30;;;14.10;;
62673;SDS011;62269;47.594;17.638;2023-08-20T02:59:00;15.45;;;13.98;;
62673;SDS011;62269;47.594;17.638;2023-08-20T02:59:57;15.63;;;14.02;;
62673;SDS011;62269;47.594;17.638;2023-08-20T03:00:54;16.40;;;14.80;;
62673;SDS011;62269;47.594;17.638;2023-08-20T03:01:51;17.00;;;14.70;;
62673;SDS011;62269;47.594;17.638;2023-08-20T03:02:48;15.88;;;14.27;;
62673;SDS011;62269;47.594;17.638;2023-08-20T03:03:45;16.12;;;14.52;;
62673;SDS011;62269;47.594;17.638;2023-08-20T03:04:43;19.12;;;14.55;;
62673;SDS011;62269;47.594;17.638;2023-08-20T03:05:40;17.73;;;15.20;;
62673;SDS011;62269;47.594;17.638;2023-08-20T03:06:37;16.58;;;14.90;;
62673;SDS011;62269;47.594;17.638;2023-08-20T03:07:34;16.98;;;15.30;;
62673;SDS011;62269;47.594;17.638;2023-08-20T03:08:31;17.58;;;15.65;;
62673;SDS011;62269;47.594;17.638;2023-08-20T03:09:28;18.62;;;15.55;;
62673;SDS011;62269;47.594;17.638;2023-08-20T03:10:26;17.10;;;15.40;;
62673;SDS011;62269;47.594;17.638;2023-08-20T03:11:23;16.25;;;14.52;;
62673;SDS011;62269;47.594;17.638;2023-08-20T03:12:20;17.10;;;15.38;;
62673;SDS011;62269;47.594;17.638;2023-08-20T03:13:18;15.85;;;14.27;;
62673;SDS011;62269;47.594;17.638;2023-08-20T03:14:15;17.15;;;14.80;;
62673;SDS011;62269;47.594;17.638;2023-08-20T03:15:12;17.40;;;14.93;;
62673;SDS011;62269;47.594;17.638;2023-08-20T03:16:09;15.85;;;14.35;;
62673;SDS011;62269;47.594;17.638;2023-08-20T03:17:06;15.68;;;14.07;;
62673;SDS011;62269;47.594;17.638;2023-08-20T03:18:03;16.45;;;13.98;;
62673;SDS011;62269;47.594;17.638;2023-08-20T03:19:01;16.33;;;13.73;;
62673;SDS011;62269;47.594;17.638;2023-08-20T03:19:59;16.45;;;14.80;;
62673;SDS011;62269;47.594;17.638;2023-08-20T03:20:57;16.95;;;14.05;;
62673;SDS011;62269;47.594;17.638;2023-08-20T03:21:54;15.57;;;14.00;;
62673;SDS011;62269;47.594;17.638;2023-08-20T03:22:51;18.52;;;15.18;;
62673;SDS011;62269;47.594;17.638;2023-08-20T03:23:49;14.80;;;13.40;;
62673;SDS011;62269;47.594;17.638;2023-08-20T03:24:46;14.90;;;13.48;;
62673;SDS011;62269;47.594;17.638;2023-08-20T03:25:43;15.35;;;13.88;;
62673;SDS011;62269;47.594;17.638;2023-08-20T03:26:40;16.30;;;14.15;;
62673;SDS011;62269;47.594;17.638;2023-08-20T03:27:37;16.50;;;14.38;;
62673;SDS011;62269;47.594;17.638;2023-08-20T03:28:34;16.12;;;14.40;;
62673;SDS011;62269;47.594;17.638;2023-08-20T03:29:31;15.55;;;14.05;;
62673;SDS011;62269;47.594;17.638;2023-08-20T03:30:28;15.25;;;13.70;;
62673;SDS011;62269;47.594;17.638;2023-08-20T03:31:25;21.87;;;14.75;;
62673;SDS011;62269;47.594;17.638;2023-08-20T03:32:22;16.92;;;15.13;;
62673;SDS011;62269;47.594;17.638;2023-08-20T03:33:19;15.30;;;13.80;;
62673;SDS011;62269;47.594;17.638;2023-08-20T03:34:16;15.73;;;14.07;;
62673;SDS011;62269;47.594;17.638;2023-08-20T03:35:13;15.57;;;13.95;;
62673;SDS011;62269;47.594;17.638;2023-08-20T03:36:10;16.17;;;14.57;;
62673;SDS011;62269;47.594;17.638;2023-08-20T03:37:07;15.60;;;14.10;;
62673;SDS011;62269;47.594;17.638;2023-08-20T03:38:04;15.95;;;14.25;;
62673;SDS011;62269;47.594;17.638;2023-08-20T03:39:01;15.95;;;14.48;;
62673;SDS011;62269;47.594;17.638;2023-08-20T03:40:00;16.50;;;14.65;;
62673;SDS011;62269;47.594;17.638;2023-08-20T03:40:57;17.30;;;14.40;;
62673;SDS011;62269;47.594;17.638;2023-08-20T03:41:54;16.58;;;14.60;;
62673;SDS011;62269;47.594;17.638;2023-08-20T03:42:51;16.45;;;14.77;;
62673;SDS011;62269;47.594;17.638;2023-08-20T03:43:48;15.93;;;14.43;;
62673;SDS011;62269;47.594;17.638;2023-08-20T03:44:45;16.65;;;14.98;;
62673;SDS011;62269;47.594;17.638;2023-08-20T03:45:42;17.35;;;13.65;;
62673;SDS011;62269;47.594;17.638;2023-08-20T03:46:39;16.45;;;14.75;;
62673;SDS011;62269;47.594;17.638;2023-08-20T03:47:36;16.20;;;14.35;;
62673;SDS011;62269;47.594;17.638;2023-08-20T03:48:34;16.80;;;15.10;;
62673;SDS011;62269;47.594;17.638;2023-08-20T03:49:31;16.50;;;14.30;;
62673;SDS011;62269;47.594;17.638;2023-08-20T03:50:28;15.90;;;14.30;;
62673;SDS011;62269;47.594;17.638;2023-08-20T03:51:25;14.87;;;13.57;;
62673;SDS011;62269;47.594;17.638;2023-08-20T03:52:22;15.15;;;13.70;;
62673;SDS011;62269;47.594;17.638;2023-08-20T03:53:19;17.50;;;15.13;;
62673;SDS011;62269;47.594;17.638;2023-08-20T03:54:16;15.57;;;14.02;;
62673;SDS011;62269;47.594;17.638;2023-08-20T03:55:13;14.63;;;13.13;;
62673;SDS011;62269;47.594;17.638;2023-08-20T03:56:10;16.60;;;15.05;;
62673;SDS011;62269;47.594;17.638;2023-08-20T03:57:07;16.60;;;15.00;;
62673;SDS011;62269;47.594;17.638;2023-08-20T03:58:04;15.70;;;14.20;;
62673;SDS011;62269;47.594;17.638;2023-08-20T03:59:01;16.50;;;14.90;;
62673;SDS011;62269;47.594;17.638;2023-08-20T03:59:59;18.30;;;15.40;;
62673;SDS011;62269;47.594;17.638;2023-08-20T04:00:56;18.75;;;14.85;;
62673;SDS011;62269;47.594;17.638;2023-08-20T04:01:53;19.73;;;14.93;;
62673;SDS011;62269;47.594;17.638;2023-08-20T04:02:50;15.82;;;14.32;;
62673;SDS011;62269;47.594;17.638;2023-08-20T04:03:47;17.12;;;15.32;;
62673;SDS011;62269;47.594;17.638;2023-08-20T04:04:44;16.05;;;14.52;;
62673;SDS011;62269;47.594;17.638;2023-08-20T04:05:41;15.80;;;14.23;;
62673;SDS011;62269;47.594;17.638;2023-08-20T04:06:38;20.20;;;15.88;;
62673;SDS011;62269;47.594;17.638;2023-08-20T04:07:36;16.80;;;15.20;;
62673;SDS011;62269;47.594;17.638;2023-08-20T04:08:33;17.70;;;15.85;;
62673;SDS011;62269;47.594;17.638;2023-08-20T04:09:31;15.23;;;13.82;;
62673;SDS011;62269;47.594;17.638;2023-08-20T04:10:29;16.87;;;14.98;;
62673;SDS011;62269;47.594;17.638;2023-08-20T04:11:26;17.40;;;15.15;;
62673;SDS011;62269;47.594;17.638;2023-08-20T04:12:23;16.00;;;14.40;;
62673;SDS011;62269;47.594;17.638;2023-08-20T04:13:20;15.65;;;14.13;;
62673;SDS011;62269;47.594;17.638;2023-08-20T04:14:17;17.35;;;15.75;;
62673;SDS011;62269;47.594;17.638;2023-08-20T04:15:14;17.02;;;15.38;;
62673;SDS011;62269;47.594;17.638;2023-08-20T04:16:11;15.93;;;14.43;;
62673;SDS011;62269;47.594;17.638;2023-08-20T04:17:10;17.05;;;15.35;;
62673;SDS011;62269;47.594;17.638;2023-08-20T04:18:07;17.67;;;15.85;;
62673;SDS011;62269;47.594;17.638;2023-08-20T04:19:04;17.42;;;15.38;;
62673;SDS011;62269;47.594;17.638;2023-08-20T04:20:01;16.37;;;14.68;;
62673;SDS011;62269;47.594;17.638;2023-08-20T04:21:00;16.35;;;14.85;;
62673;SDS011;62269;47.594;17.638;2023-08-20T04:21:57;17.62;;;15.88;;
62673;SDS011;62269;47.594;17.638;2023-08-20T04:22:54;16.45;;;14.82;;
62673;SDS011;62269;47.594;17.638;2023-08-20T04:23:51;16.75;;;14.68;;
62673;SDS011;62269;47.594;17.638;2023-08-20T04:24:48;16.15;;;14.40;;
62673;SDS011;62269;47.594;17.638;2023-08-20T04:25:46;16.42;;;14.80;;
62673;SDS011;62269;47.594;17.638;2023-08-20T04:26:43;16.40;;;14.75;;
62673;SDS011;62269;47.594;17.638;2023-08-20T04:27:40;17.05;;;15.38;;
62673;SDS011;62269;47.594;17.638;2023-08-20T04:28:37;16.80;;;15.00;;
62673;SDS011;62269;47.594;17.638;2023-08-20T04:29:34;16.00;;;14.40;;
62673;SDS011;62269;47.594;17.638;2023-08-20T04:30:31;16.30;;;14.80;;
62673;SDS011;62269;47.594;17.638;2023-08-20T04:31:28;16.00;;;14.20;;
62673;SDS011;62269;47.594;17.638;2023-08-20T04:32:25;15.88;;;14.35;;
62673;SDS011;62269;47.594;17.638;2023-08-20T04:33:22;16.40;;;14.70;;
62673;SDS011;62269;47.594;17.638;2023-08-20T04:34:19;16.87;;;15.20;;
62673;SDS011;62269;47.594;17.638;2023-08-20T04:35:16;16.23;;;14.63;;
62673;SDS011;62269;47.594;17.638;2023-08-20T04:36:13;17.10;;;15.50;;
62673;SDS011;62269;47.594;17.638;2023-08-20T04:37:10;15.85;;;14.18;;
62673;SDS011;62269;47.594;17.638;2023-08-20T04:38:07;15.35;;;13.85;;
62673;SDS011;62269;47.594;17.638;2023-08-20T04:39:04;17.10;;;15.32;;
62673;SDS011;62269;47.594;17.638;2023-08-20T04:40:02;16.37;;;14.77;;
62673;SDS011;62269;47.594;17.638;2023-08-20T04:41:02;16.60;;;14.98;;
62673;SDS011;62269;47.594;17.638;2023-08-20T04:41:59;16.48;;;14.43;;
62673;SDS011;62269;47.594;17.638;2023-08-20T04:42:56;15.60;;;14.05;;
62673;SDS011;62269;47.594;17.638;2023-08-20T04:43:53;16.02;;;14.40;;
62673;SDS011;62269;47.594;17.638;2023-08-20T04:44:50;15.60;;;14.20;;
62673;SDS011;62269;47.594;17.638;2023-08-20T04:45:47;15.55;;;14.02;;
62673;SDS011;62269;47.594;17.638;2023-08-20T04:46:44;15.15;;;13.65;;
62673;SDS011;62269;47.594;17.638;2023-08-20T04:47:41;15.13;;;13.68;;
62673;SDS011;62269;47.594;17.638;2023-08-20T04:48:38;15.43;;;13.88;;
62673;SDS011;62269;47.594;17.638;2023-08-20T04:49:35;15.35;;;13.77;;
62673;SDS011;62269;47.594;17.638;2023-08-20T04:50:32;16.12;;;14.38;;
62673;SDS011;62269;47.594;17.638;2023-08-20T04:51:29;16.80;;;14.98;;
62673;SDS011;62269;47.594;17.638;2023-08-20T04:52:26;15.52;;;13.35;;
62673;SDS011;62269;47.594;17.638;2023-08-20T04:53:23;15.32;;;13.85;;
62673;SDS011;62269;47.594;17.638;2023-08-20T04:54:20;15.00;;;13.70;;
62673;SDS011;62269;47.594;17.638;2023-08-20T04:55:17;16.08;;;14.07;;
62673;SDS011;62269;47.594;17.638;2023-08-20T04:56:15;15.25;;;13.75;;
62673;SDS011;62269;47.594;17.638;2023-08-20T04:57:12;14.65;;;13.25;;
62673;SDS011;62269;47.594;17.638;2023-08-20T04:58:09;14.30;;;12.95;;
62673;SDS011;62269;47.594;17.638;2023-08-20T04:59:06;14.57;;;13.20;;
62673;SDS011;62269;47.594;17.638;2023-08-20T05:00:03;14.68;;;13.25;;
62673;SDS011;62269;47.594;17.638;2023-08-20T05:01:00;15.55;;;13.27;;
62673;SDS011;62269;47.594;17.638;2023-08-20T05:01:58;15.00;;;13.60;;
62673;SDS011;62269;47.594;17.638;2023-08-20T05:02:54;15.02;;;13.52;;
62673;SDS011;62269;47.594;17.638;2023-08-20T05:03:52;15.35;;;13.50;;
62673;SDS011;62269;47.594;17.638;2023-08-20T05:04:49;14.45;;;12.90;;
62673;SDS011;62269;47.594;17.638;2023-08-20T05:05:50;14.63;;;13.15;;
62673;SDS011;62269;47.594;17.638;2023-08-20T05:06:47;14.30;;;12.90;;
62673;SDS011;62269;47.594;17.638;2023-08-20T05:07:44;15.50;;;13.07;;
62673;SDS011;62269;47.594;17.638;2023-08-20T05:08:41;13.95;;;12.65;;
62673;SDS011;62269;47.594;17.638;2023-08-20T05:09:39;14.35;;;12.82;;
62673;SDS011;62269;47.594;17.638;2023-08-20T05:10:36;14.40;;;13.00;;
62673;SDS011;62269;47.594;17.638;2023-08-20T05:11:33;13.52;;;12.32;;
62673;SDS011;62269;47.594;17.638;2023-08-20T05:12:30;13.57;;;12.27;;
62673;SDS011;62269;47.594;17.638;2023-08-20T05:13:28;13.60;;;12.27;;
62673;SDS011;62269;47.594;17.638;2023-08-20T05:14:25;13.65;;;12.30;;
62673;SDS011;62269;47.594;17.638;2023-08-20T05:15:22;14.23;;;12.82;;
62673;SDS011;62269;47.594;17.638;2023-08-20T05:16:19;12.80;;;11.48;;
62673;SDS011;62269;47.594;17.638;2023-08-20T05:17:16;14.60;;;13.07;;
62673;SDS011;62269;47.594;17.638;2023-08-20T05:18:13;14.13;;;12.73;;
62673;SDS011;62269;47.594;17.638;2023-08-20T05:19:10;14.30;;;11.82;;
62673;SDS011;62269;47.594;17.638;2023-08-20T05:20:07;13.73;;;12.13;;
62673;SDS011;62269;47.594;17.638;2023-08-20T05:21:05;14.02;;;12.10;;
62673;SDS011;62269;47.594;17.638;2023-08-20T05:22:02;13.43;;;12.13;;
62673;SDS011;62269;47.594;17.638;2023-08-20T05:22:59;13.38;;;12.00;;
62673;SDS011;62269;47.594;17.638;2023-08-20T05:23:56;12.60;;;11.40;;
62673;SDS011;62269;47.594;17.638;2023-08-20T05:24:53;12.95;;;11.65;;
62673;SDS011;62269;47.594;17.638;2023-08-20T05:25:50;13.40;;;12.20;;
62673;SDS011;62269;47.594;17.638;2023-08-20T05:26:50;15.38;;;12.70;;
62673;SDS011;62269;47.594;17.638;2023-08-20T05:28:06;13.45;;;12.15;;
62673;SDS011;62269;47.594;17.638;2023-08-20T05:29:03;12.98;;;11.65;;
62673;SDS011;62269;47.594;17.638;2023-08-20T05:30:00;13.38;;;12.10;;
62673;SDS011;62269;47.594;17.638;2023-08-20T05:30:57;13.88;;;12.57;;
62673;SDS011;62269;47.594;17.638;2023-08-20T05:31:55;13.43;;;12.23;;
62673;SDS011;62269;47.594;17.638;2023-08-20T05:32:52;13.90;;;12.10;;
62673;SDS011;62269;47.594;17.638;2023-08-20T05:33:49;12.37;;;11.18;;
62673;SDS011;62269;47.594;17.638;2023-08-20T05:34:46;13.52;;;12.15;;
62673;SDS011;62269;47.594;17.638;2023-08-20T05:35:43;13.27;;;11.98;;
62673;SDS011;62269;47.594;17.638;2023-08-20T05:36:41;14.60;;;13.10;;
62673;SDS011;62269;47.594;17.638;2023-08-20T05:37:38;13.38;;;12.07;;
62673;SDS011;62269;47.594;17.638;2023-08-20T05:38:35;13.18;;;11.88;;
62673;SDS011;62269;47.594;17.638;2023-08-20T05:39:42;16.27;;;12.50;;